メインページ
METAR-TAF:

METAR-TAF

空港 :

インディラ・ガンディー国際空港

ニューデリー, インド

緯度: 28-34N, 経度: 077-07E, 海抜: 220m

現時点の気象観測

当レポートは36分前の23:30(UTC)に作成
西の風 9kt
気温 22°C
湿度 100%
気圧 1007 hPa
視程: 2800m
高度3000ftの雲は散在している
高度8000ftの曇り
小霧雨

METAR: VIDP 242330Z 28009KT 2800 -DZ SCT030 OVC080 22/22 Q1007 NOSIG

時間: 05:36 (00:06 UTC)

予報

当レポートは1時間6分前の23:00(UTC)に作成
予報は25日の 00時(UTC)から 26日の 06時(UTC)まで有効
西の風 8kt
視程: 2500m
高度3000ftの雲は散在している
高度10000ftの千切れ雲あり
靄, 雨
25日の 00時(UTC)から 25日の 03時(UTC)まで一時的に
視程: 1200m
高度3500ftの雲はほとんどない, 積乱雲.
高度8000ftの曇り
激しい雷雨, 雨
25日の 06時(UTC)から 25日の 08時(UTC)まで徐々に
北西の風 12kt
視程: 3500m
靄, 煙霧
25日の 06時(UTC)から 25日の 12時(UTC)まで一時的に
視程: 1500m
高度4000ftの雲はほとんどない, 積乱雲.
高度8000ftの曇り
激しい雷雨, 雨
25日の 17時(UTC)から 25日の 19時(UTC)まで徐々に
西/南西の風 5kt
視程: 2500m
高度3500ftの雲はほとんどない
高度10000ftの雲は散在している
26日の 04時(UTC)から 26日の 05時(UTC)まで徐々に
北西の風 8kt
視程: 3500m
高度10000ftの雲は散在している
靄, 煙霧

TAF: VIDP 242300Z 2500/2606 26008KT 2500 BR RA SCT030 BKN100 TEMPO 2500/2503 1200 TSRA FEW035CB OVC080 BECMG 2506/2508 32012KT 3500 BR HZ TEMPO 2506/2512 1500 TSRA FEW040CB OVC080 BECMG 2517/2519 25005KT 2500 BR FEW035 SCT100 BECMG 2604/2605 31008KT 3500 BR HZ SCT100

4,000以上の空港の気象観測と天気予報(METAR報とTAF報)

利用可能な観測所は地図上に黄色い丸と赤い丸で示す。

丸の上にカーソルを重ねると観測所名を参照できる。

次にクリックすると気象観測と天気予報を参照できる。

マップの切り替え:黒色「×」印の緑ボタンをクリックして拡大、「-」印の緑ボタンをクリックして縮小、緑色の三角印をクリックして隣りの地図に切り替え


METAR-TAF: